| time (UTC) | temp F | wind direction | speed MPH | gust MPH | rain 1hr in | rain 24hr in | rain mn in | humidity % | barometer mb |
| 20260509001559 | 66 | 213 | 3.0 | 11.0 | 0.00 | 0.00 | 0.00 | 47 | 1011.0 |
| 20260509000108 | 66 | 204 | 4.0 | 11.0 | 0.00 | 0.00 | 0.00 | 47 | 1011.1 |
| 20260508234600 | 66 | 196 | 4.0 | 10.0 | 0.00 | 0.00 | 0.00 | 47 | 1011.1 |
| 20260508233100 | 67 | 194 | 3.0 | 8.0 | 0.00 | 0.00 | 0.00 | 47 | 1011.1 |
| 20260508231600 | 67 | 199 | 4.0 | 11.0 | 0.00 | 0.00 | 0.00 | 46 | 1011.1 |
| 20260508230127 | 67 | 200 | 3.0 | 11.0 | 0.00 | 0.00 | 0.00 | 45 | 1011.2 |
| 20260508224604 | 67 | 201 | 5.0 | 12.0 | 0.00 | 0.00 | 0.00 | 46 | 1011.1 |
| 20260508223058 | 68 | 201 | 9.0 | 18.0 | 0.00 | 0.00 | 0.00 | 43 | 1011.0 |
| 20260508221559 | 68 | 184 | 8.0 | 17.0 | 0.00 | 0.00 | 0.00 | 45 | 1010.9 |
| 20260508220124 | 68 | 169 | 10.0 | 15.0 | 0.00 | 0.00 | 0.00 | 45 | 1010.7 |
| 20260508214558 | 68 | 168 | 6.0 | 16.0 | 0.00 | 0.00 | 0.00 | 44 | 1010.9 |
| 20260508213101 | 69 | 180 | 12.0 | 20.0 | 0.00 | 0.00 | 0.00 | 41 | 1010.9 |
| 20260508211559 | 70 | 192 | 10.0 | 18.0 | 0.00 | 0.00 | 0.00 | 42 | 1011.0 |
| 20260508210059 | 68 | 197 | 6.0 | 14.0 | 0.00 | 0.00 | 0.00 | 44 | 1011.4 |
| 20260508204606 | 69 | 334 | 12.0 | 21.0 | 0.00 | 0.00 | 0.00 | 42 | 1011.6 |
| 20260508203058 | 68 | 184 | 6.0 | 16.0 | 0.00 | 0.00 | 0.00 | 41 | 1011.9 |
| 20260508201601 | 70 | 211 | 7.0 | 16.0 | 0.00 | 0.00 | 0.00 | 41 | 1011.9 |
| 20260508194601 | 68 | 190 | 9.0 | 16.0 | 0.00 | 0.00 | 0.00 | 40 | 1012.4 |
| 20260508193107 | 69 | 229 | 11.0 | 19.0 | 0.00 | 0.00 | 0.00 | 43 | 1012.4 |
| 20260508191600 | 70 | 195 | 9.0 | 20.0 | 0.00 | 0.00 | 0.00 | 39 | 1012.5 |
| 20260508190109 | 70 | 174 | 4.0 | 17.0 | 0.00 | 0.00 | 0.00 | 40 | 1012.7 |
| 20260508184558 | 69 | 215 | 9.0 | 18.0 | 0.00 | 0.00 | 0.00 | 46 | 1012.9 |
| 20260508183103 | 69 | 203 | 13.0 | 21.0 | 0.00 | 0.00 | 0.00 | 43 | 1013.1 |
| 20260508181610 | 69 | 174 | 7.0 | 20.0 | 0.00 | 0.00 | 0.00 | 43 | 1013.4 |
| 20260508180107 | 68 | 218 | 12.0 | 19.0 | 0.00 | 0.00 | 0.00 | 41 | 1013.8 |
| 20260508174619 | 68 | 205 | 13.0 | 24.0 | 0.00 | 0.00 | 0.00 | 42 | 1014.0 |
| 20260508173101 | 68 | 169 | 8.0 | 18.0 | 0.00 | 0.00 | 0.00 | 43 | 1014.3 |
| 20260508171558 | 67 | 316 | 6.0 | 17.0 | 0.00 | 0.00 | 0.00 | 42 | 1014.5 |
| 20260508170105 | 67 | 201 | 11.0 | 22.0 | 0.00 | 0.00 | 0.00 | 41 | 1014.9 |
| 20260508164559 | 67 | 207 | 6.0 | 12.0 | 0.00 | 0.00 | 0.00 | 48 | 1015.1 |
| 20260508163059 | 67 | 182 | 6.0 | 16.0 | 0.00 | 0.00 | 0.00 | 44 | 1015.4 |
| 20260508161558 | 66 | 208 | 8.0 | 17.0 | 0.00 | 0.00 | 0.00 | 48 | 1015.6 |
| 20260508160104 | 66 | 206 | 5.0 | 19.0 | 0.00 | 0.00 | 0.00 | 48 | 1015.6 |
| 20260508154559 | 65 | 251 | 3.0 | 12.0 | 0.00 | 0.00 | 0.00 | 46 | 1015.8 |
| 20260508153103 | 64 | 176 | 7.0 | 14.0 | 0.00 | 0.00 | 0.00 | 50 | 1016.0 |
| 20260508151603 | 64 | 220 | 6.0 | 17.0 | 0.00 | 0.00 | 0.00 | 47 | 1016.3 |
| 20260508150059 | 63 | 204 | 7.0 | 15.0 | 0.00 | 0.00 | 0.00 | 49 | 1016.4 |
| 20260508144607 | 62 | 289 | 4.0 | 14.0 | 0.00 | 0.00 | 0.00 | 52 | 1016.3 |
| 20260508143100 | 60 | 188 | 7.0 | 15.0 | 0.00 | 0.00 | 0.00 | 52 | 1016.4 |
| 20260508141601 | 58 | 222 | 5.0 | 13.0 | 0.00 | 0.00 | 0.00 | 56 | 1016.5 |
| 20260508140100 | 56 | 205 | 7.0 | 14.0 | 0.00 | 0.00 | 0.00 | 57 | 1016.6 |
| 20260508134616 | 55 | 200 | 4.0 | 11.0 | 0.00 | 0.00 | 0.00 | 64 | 1016.7 |
| 20260508133058 | 53 | 207 | 3.0 | 11.0 | 0.00 | 0.00 | 0.00 | 63 | 1016.6 |
| 20260508131601 | 52 | 190 | 3.0 | 12.0 | 0.00 | 0.00 | 0.00 | 63 | 1016.7 |
| 20260508130057 | 51 | 215 | 6.0 | 14.0 | 0.00 | 0.00 | 0.00 | 64 | 1016.6 |
| 20260508124600 | 50 | 191 | 6.0 | 13.0 | 0.00 | 0.00 | 0.00 | 65 | 1016.6 |
| 20260508123108 | 49 | 211 | 5.0 | 12.0 | 0.00 | 0.00 | 0.00 | 69 | 1016.4 |
| 20260508121559 | 48 | 195 | 5.0 | 10.0 | 0.00 | 0.00 | 0.00 | 70 | 1016.4 |
| 20260508120058 | 46 | 174 | 5.0 | 11.0 | 0.00 | 0.00 | 0.00 | 73 | 1016.4 |
| 20260508114558 | 45 | 219 | 5.0 | 9.0 | 0.00 | 0.01 | 0.00 | 75 | 1016.3 |
| 20260508113105 | 44 | 192 | 3.0 | 8.0 | 0.00 | 0.01 | 0.00 | 77 | 1016.1 |
| 20260508111557 | 43 | 199 | 4.0 | 7.0 | 0.00 | 0.01 | 0.00 | 77 | 1016.1 |
| 20260508110057 | 43 | 190 | 3.0 | 6.0 | 0.00 | 0.01 | 0.00 | 77 | 1016.0 |
| 20260508104605 | 44 | 205 | 3.0 | 8.0 | 0.00 | 0.01 | 0.00 | 77 | 1015.9 |
| 20260508103059 | 44 | 199 | 2.0 | 4.0 | 0.00 | 0.01 | 0.00 | 79 | 1015.9 |
| 20260508101559 | 43 | 197 | 3.0 | 6.0 | 0.00 | 0.01 | 0.00 | 81 | 1015.8 |
| 20260508100059 | 41 | 0 | 0.0 | 0.0 | 0.00 | 0.01 | 0.00 | 86 | 1016.0 |
| 20260508094616 | 40 | 0 | 0.0 | 0.0 | 0.00 | 0.01 | 0.00 | 85 | 1015.8 |
| 20260508093058 | 40 | 0 | 0.0 | 0.0 | 0.00 | 0.01 | 0.00 | 85 | 1016.0 |
| 20260508091559 | 40 | 0 | 0.0 | 0.0 | 0.00 | 0.01 | 0.00 | 84 | 1015.7 |
| 20260508090057 | 41 | 0 | 0.0 | 0.0 | 0.00 | 0.01 | 0.00 | 84 | 1015.8 |
| 20260508084558 | 41 | 0 | 0.0 | 0.0 | 0.00 | 0.01 | 0.00 | 83 | 1015.9 |
| 20260508083100 | 41 | 0 | 0.0 | 0.0 | 0.00 | 0.01 | 0.00 | 83 | 1015.8 |
| 20260508081619 | 42 | 0 | 0.0 | 0.0 | 0.00 | 0.01 | 0.00 | 82 | 1015.7 |
| 20260508080101 | 42 | 0 | 0.0 | 0.0 | 0.00 | 0.01 | 0.00 | 80 | 1015.6 |
| 20260508074558 | 43 | 0 | 0.0 | 0.0 | 0.00 | 0.01 | 0.00 | 79 | 1015.7 |
| 20260508073059 | 43 | 0 | 0.0 | 0.0 | 0.00 | 0.01 | 0.00 | 79 | 1015.6 |
| 20260508071606 | 43 | 0 | 0.0 | 2.0 | 0.00 | 0.01 | 0.00 | 80 | 1015.7 |
| 20260508070105 | 43 | 230 | 1.0 | 2.0 | 0.00 | 0.01 | 0.00 | 78 | 1015.8 |
| 20260508064601 | 44 | 0 | 0.0 | 0.0 | 0.00 | 0.01 | 0.00 | 75 | 1016.1 |
| 20260508063108 | 45 | 0 | 0.0 | 1.0 | 0.00 | 0.01 | 0.00 | 72 | 1016.3 |
| 20260508061559 | 45 | 230 | 1.0 | 2.0 | 0.00 | 0.01 | 0.00 | 72 | 1016.5 |
| 20260508060106 | 46 | 0 | 0.0 | 3.0 | 0.00 | 0.01 | 0.00 | 71 | 1016.6 |
| 20260508054558 | 46 | 230 | 1.0 | 3.0 | 0.00 | 0.01 | 0.00 | 69 | 1016.5 |
| 20260508053103 | 46 | 231 | 1.0 | 4.0 | 0.00 | 0.01 | 0.00 | 70 | 1016.5 |
| 20260508051600 | 44 | 253 | 1.0 | 3.0 | 0.00 | 0.01 | 0.00 | 77 | 1016.5 |
| 20260508050105 | 44 | 0 | 0.0 | 0.0 | 0.00 | 0.01 | 0.00 | 81 | 1016.4 |
| 20260508044600 | 44 | 0 | 0.0 | 0.0 | 0.00 | 0.01 | 0.00 | 78 | 1016.5 |
| 20260508043105 | 44 | 0 | 0.0 | 0.0 | 0.00 | 0.01 | 0.00 | 78 | 1016.5 |
| 20260508041600 | 44 | 0 | 0.0 | 0.0 | 0.00 | 0.01 | 0.00 | 82 | 1016.5 |
| 20260508040105 | 44 | 0 | 0.0 | 0.0 | 0.00 | 0.01 | 0.00 | 83 | 1016.4 |
| 20260508034648 | 44 | 0 | 0.0 | 0.0 | 0.00 | 0.01 | 0.01 | 82 | 1016.5 |
| 20260508033057 | 45 | 0 | 0.0 | 0.0 | 0.00 | 0.01 | 0.01 | 81 | 1016.6 |
| 20260508031559 | 45 | 0 | 0.0 | 0.0 | 0.00 | 0.01 | 0.01 | 83 | 1016.5 |
| 20260508030104 | 46 | 0 | 0.0 | 0.0 | 0.00 | 0.01 | 0.01 | 81 | 1016.6 |
| 20260508024600 | 46 | 0 | 0.0 | 0.0 | 0.00 | 0.01 | 0.01 | 78 | 1016.4 |
| 20260508023059 | 47 | 0 | 0.0 | 0.0 | 0.00 | 0.01 | 0.01 | 76 | 1016.4 |
| 20260508021559 | 47 | 0 | 0.0 | 0.0 | 0.00 | 0.01 | 0.01 | 73 | 1016.3 |
| 20260508020104 | 48 | 0 | 0.0 | 0.0 | 0.00 | 0.01 | 0.01 | 74 | 1016.4 |
| 20260508014559 | 49 | 0 | 0.0 | 0.0 | 0.00 | 0.01 | 0.01 | 70 | 1016.3 |
| 20260508013059 | 50 | 0 | 0.0 | 0.0 | 0.00 | 0.01 | 0.01 | 69 | 1016.2 |
| 20260508011603 | 51 | 0 | 0.0 | 0.0 | 0.00 | 0.01 | 0.01 | 62 | 1016.1 |
| 20260508010100 | 52 | 0 | 0.0 | 0.0 | 0.00 | 0.01 | 0.01 | 57 | 1016.1 |
| 20260508004604 | 54 | 0 | 0.0 | 0.0 | 0.00 | 0.01 | 0.01 | 55 | 1016.0 |
| 20260508003105 | 56 | 0 | 0.0 | 0.0 | 0.00 | 0.01 | 0.01 | 49 | 1015.9 |